Back to Top

Language: 

My Weather Underground Personal Weather Station Historical Data with Graphs...

Delerius Weather Station Historical Data
Daily Summary for July 20, 2017 Units:  English    Metric   Both
« Previous Day
Next Day »
Daily Weekly Monthly Yearly Custom
  High: Low: Average:
Temperature: 66.6 °F 55.2 °F 60.7 °F
Dew Point: 63.2 °F 45.6 °F 53.5 °F
Humidity: 95 % 53 % 79 %
Wind Speed: 14.0 mph 0.0 mph 6.5 mph
Wind Gust: 25.0 mph - -
Wind:- - West
Pressure: 29.76 in 29.60 in -
Precipitation: 0.22 in    
Historical Graphs
 
 
Tabular Data for July 20, 2017
Time Temperature Dew Point Pressure Wind Wind Speed Wind Gust Humidity Rainfall Rate (Hourly) solar Conditions
00:02 66.6 °F 63.2 °F 29.60 in WSW 4.0 mph 7.0 mph 89 % 0.00 in 0 W/m2
00:07 66.6 °F 63.2 °F 29.61 in WSW 5.0 mph 7.0 mph 89 % 0.00 in 0 W/m2
00:12 66.6 °F 63.2 °F 29.61 in WSW 5.0 mph 8.0 mph 89 % 0.00 in 0 W/m2
00:17 66.4 °F 63.0 °F 29.61 in WSW 4.0 mph 8.0 mph 89 % 0.00 in 0 W/m2
00:22 66.4 °F 63.0 °F 29.61 in WSW 3.0 mph 8.0 mph 89 % 0.00 in 0 W/m2
00:27 66.4 °F 62.7 °F 29.61 in West 3.0 mph 6.0 mph 88 % 0.00 in 0 W/m2
00:32 66.4 °F 63.0 °F 29.61 in WSW 2.0 mph 6.0 mph 89 % 0.00 in 0 W/m2
00:37 66.4 °F 63.0 °F 29.61 in WSW 1.0 mph 6.0 mph 89 % 0.00 in 0 W/m2
00:42 66.2 °F 62.9 °F 29.61 in WSW 1.0 mph 6.0 mph 89 % 0.00 in 0 W/m2
00:47 66.0 °F 62.7 °F 29.61 in WSW 1.0 mph 4.0 mph 89 % 0.00 in 0 W/m2
00:52 66.0 °F 62.7 °F 29.61 in WSW 1.0 mph 4.0 mph 89 % 0.00 in 0 W/m2
00:57 66.0 °F 62.7 °F 29.61 in Calm   3.0 mph 89 % 0.00 in 0 W/m2
01:02 65.8 °F 62.5 °F 29.61 in WSW 1.0 mph 5.0 mph 89 % 0.00 in 0 W/m2
01:07 65.8 °F 62.5 °F 29.61 in WSW 1.0 mph 5.0 mph 89 % 0.00 in 0 W/m2
01:12 65.8 °F 62.5 °F 29.61 in WSW 1.0 mph 4.0 mph 89 % 0.00 in 0 W/m2
01:17 65.8 °F 62.5 °F 29.61 in Calm   3.0 mph 89 % 0.00 in 0 W/m2
01:22 65.8 °F 62.5 °F 29.61 in Calm   2.0 mph 89 % 0.00 in 0 W/m2
01:27 65.8 °F 62.5 °F 29.61 in Calm   2.0 mph 89 % 0.00 in 0 W/m2
01:32 65.8 °F 62.5 °F 29.60 in SW 1.0 mph 5.0 mph 89 % 0.00 in 0 W/m2
01:37 65.7 °F 62.3 °F 29.60 in WSW 3.0 mph 7.0 mph 89 % 0.00 in 0 W/m2
01:42 65.7 °F 62.0 °F 29.60 in WSW 5.0 mph 7.0 mph 88 % 0.00 in 0 W/m2
01:47 65.7 °F 62.0 °F 29.61 in WSW 4.0 mph 7.0 mph 88 % 0.00 in 0 W/m2
01:52 65.5 °F 61.8 °F 29.61 in WSW 3.0 mph 6.0 mph 88 % 0.00 in 0 W/m2
01:57 65.5 °F 61.8 °F 29.61 in West 3.0 mph 7.0 mph 88 % 0.00 in 0 W/m2
02:02 65.5 °F 61.5 °F 29.60 in West 3.0 mph 8.0 mph 87 % 0.00 in 0 W/m2
02:07 65.5 °F 61.5 °F 29.60 in WNW 3.0 mph 8.0 mph 87 % 0.00 in 0 W/m2
02:12 65.5 °F 61.5 °F 29.60 in WNW 3.0 mph 8.0 mph 87 % 0.00 in 0 W/m2
02:17 65.5 °F 61.2 °F 29.60 in WNW 4.0 mph 8.0 mph 86 % 0.00 in 0 W/m2
02:22 65.5 °F 61.2 °F 29.60 in WNW 4.0 mph 7.0 mph 86 % 0.00 in 0 W/m2
02:27 65.5 °F 61.2 °F 29.60 in WNW 5.0 mph 7.0 mph 86 % 0.00 in 0 W/m2
02:32 65.3 °F 61.0 °F 29.60 in West 6.0 mph 11.0 mph 86 % 0.00 in 0 W/m2
02:37 65.1 °F 61.2 °F 29.60 in West 6.0 mph 11.0 mph 87 % 0.00 in 0 W/m2
02:42 64.9 °F 60.6 °F 29.60 in West 7.0 mph 14.0 mph 86 % 0.00 in 0 W/m2
02:47 64.8 °F 60.1 °F 29.60 in WSW 8.0 mph 14.0 mph 85 % 0.00 in 0 W/m2
02:52 64.8 °F 60.1 °F 29.60 in WSW 8.0 mph 14.0 mph 85 % 0.00 in 0 W/m2
02:57 64.6 °F 59.6 °F 29.60 in WSW 7.0 mph 12.0 mph 84 % 0.00 in 0 W/m2
03:02 64.6 °F 59.6 °F 29.60 in West 7.0 mph 12.0 mph 84 % 0.00 in 0 W/m2
03:07 64.6 °F 59.6 °F 29.60 in West 6.0 mph 12.0 mph 84 % 0.00 in 0 W/m2
03:12 64.6 °F 59.6 °F 29.60 in WSW 6.0 mph 10.0 mph 84 % 0.00 in 0 W/m2
03:17 64.2 °F 59.3 °F 29.60 in WSW 6.0 mph 10.0 mph 84 % 0.00 in 0 W/m2
03:22 64.2 °F 59.3 °F 29.60 in WSW 6.0 mph 9.0 mph 84 % 0.00 in 0 W/m2
03:27 64.0 °F 59.8 °F 29.60 in WSW 6.0 mph 9.0 mph 86 % 0.01 in 0 W/m2
03:32 63.9 °F 59.9 °F 29.60 in West 4.0 mph 9.0 mph 87 % 0.01 in 0 W/m2
03:37 63.7 °F 59.7 °F 29.60 in WSW 1.0 mph 6.0 mph 87 % 0.01 in 0 W/m2
03:42 63.5 °F 59.9 °F 29.60 in Calm   4.0 mph 88 % 0.01 in 0 W/m2
03:47 63.3 °F 59.7 °F 29.60 in West 1.0 mph 4.0 mph 88 % 0.01 in 0 W/m2
03:48 63.1 °F 59.5 °F 29.60 in West 1.0 mph 4.0 mph 88 % 0.01 in 0 W/m2
03:53 63.1 °F 59.5 °F 29.60 in Calm   2.0 mph 88 % 0.01 in 0 W/m2
03:58 63.0 °F 59.3 °F 29.61 in Calm   2.0 mph 88 % 0.01 in 0 W/m2
04:03 62.8 °F 59.5 °F 29.60 in Calm   2.0 mph 89 % 0.01 in 0 W/m2
04:08 62.8 °F 59.5 °F 29.60 in Calm   2.0 mph 89 % 0.01 in 0 W/m2
04:13 62.6 °F 59.3 °F 29.60 in Calm   4.0 mph 89 % 0.01 in 0 W/m2
04:18 62.4 °F 59.1 °F 29.60 in West 1.0 mph 4.0 mph 89 % 0.01 in 0 W/m2
04:23 62.2 °F 59.0 °F 29.60 in West 1.0 mph 5.0 mph 89 % 0.01 in 0 W/m2
04:28 62.2 °F 59.0 °F 29.60 in WNW 3.0 mph 7.0 mph 89 % 0.00 in 0 W/m2
04:33 62.1 °F 58.8 °F 29.60 in WNW 4.0 mph 9.0 mph 89 % 0.00 in 0 W/m2
04:38 61.9 °F 58.9 °F 29.60 in West 5.0 mph 10.0 mph 90 % 0.00 in 0 W/m2
04:43 61.9 °F 58.9 °F 29.60 in West 5.0 mph 10.0 mph 90 % 0.00 in 0 W/m2
04:48 61.9 °F 58.9 °F 29.60 in WSW 5.0 mph 10.0 mph 90 % 0.00 in 0 W/m2
04:53 61.5 °F 58.6 °F 29.60 in WSW 6.0 mph 12.0 mph 90 % 0.00 in 0 W/m2
04:58 61.5 °F 58.6 °F 29.60 in WSW 6.0 mph 12.0 mph 90 % 0.00 in 0 W/m2
05:03 61.3 °F 58.4 °F 29.60 in West 6.0 mph 11.0 mph 90 % 0.00 in 0 W/m2
05:08 61.2 °F 58.2 °F 29.60 in West 5.0 mph 10.0 mph 90 % 0.00 in 0 W/m2
05:13 61.2 °F 58.2 °F 29.60 in WNW 4.0 mph 8.0 mph 90 % 0.00 in 0 W/m2
05:18 61.2 °F 58.2 °F 29.60 in West 3.0 mph 7.0 mph 90 % 0.00 in 0 W/m2
05:23 61.0 °F 58.0 °F 29.60 in WNW 4.0 mph 9.0 mph 90 % 0.00 in 0 W/m2
05:28 61.0 °F 58.0 °F 29.60 in WNW 5.0 mph 9.0 mph 90 % 0.00 in 0 W/m2
05:33 61.0 °F 58.3 °F 29.60 in West 3.0 mph 7.0 mph 91 % 0.00 in 0 W/m2
05:38 61.0 °F 58.0 °F 29.61 in West 1.0 mph 5.0 mph 90 % 0.00 in 0 W/m2
05:43 61.0 °F 58.0 °F 29.61 in West 1.0 mph 5.0 mph 90 % 0.00 in 0 W/m2
05:48 60.8 °F 57.8 °F 29.61 in West 1.0 mph 5.0 mph 90 % 0.00 in 0 W/m2
05:53 60.6 °F 57.7 °F 29.61 in West 2.0 mph 8.0 mph 90 % 0.00 in 0 W/m2
05:58 60.6 °F 57.7 °F 29.61 in WNW 4.0 mph 8.0 mph 90 % 0.00 in 5 W/m2
06:03 60.4 °F 57.5 °F 29.61 in West 4.0 mph 8.0 mph 90 % 0.00 in 14 W/m2
06:08 60.4 °F 57.5 °F 29.61 in West 5.0 mph 13.0 mph 90 % 0.00 in 25 W/m2
06:13 60.3 °F 57.3 °F 29.61 in West 7.0 mph 13.0 mph 90 % 0.00 in 37 W/m2
06:18 60.1 °F 57.1 °F 29.61 in West 6.0 mph 13.0 mph 90 % 0.00 in 39 W/m2
06:23 60.1 °F 57.1 °F 29.61 in West 6.0 mph 11.0 mph 90 % 0.00 in 58 W/m2
06:28 59.9 °F 57.0 °F 29.62 in West 8.0 mph 13.0 mph 90 % 0.00 in 54 W/m2
06:33 59.7 °F 56.8 °F 29.61 in West 8.0 mph 13.0 mph 90 % 0.00 in 93 W/m2
06:38 59.7 °F 56.8 °F 29.61 in West 8.0 mph 14.0 mph 90 % 0.00 in 121 W/m2
06:43 59.7 °F 56.8 °F 29.61 in WNW 9.0 mph 18.0 mph 90 % 0.00 in 104 W/m2
06:48 59.5 °F 56.3 °F 29.62 in WNW 10.0 mph 18.0 mph 89 % 0.00 in 107 W/m2
06:53 59.5 °F 56.3 °F 29.62 in WNW 11.0 mph 16.0 mph 89 % 0.00 in 120 W/m2
06:58 59.5 °F 56.3 °F 29.62 in West 10.0 mph 16.0 mph 89 % 0.00 in 163 W/m2
07:03 59.7 °F 56.5 °F 29.62 in WNW 9.0 mph 15.0 mph 89 % 0.00 in 155 W/m2
07:08 59.9 °F 56.3 °F 29.62 in West 9.0 mph 18.0 mph 88 % 0.00 in 81 W/m2
07:13 59.9 °F 56.0 °F 29.62 in West 10.0 mph 19.0 mph 87 % 0.00 in 44 W/m2
07:18 59.5 °F 55.7 °F 29.63 in WNW 11.0 mph 20.0 mph 87 % 0.00 in 25 W/m2
07:24 59.4 °F 55.8 °F 29.64 in WNW 12.0 mph 20.0 mph 88 % 0.01 in 18 W/m2
07:29 59.2 °F 55.9 °F 29.64 in WNW 10.0 mph 16.0 mph 89 % 0.03 in 12 W/m2
07:34 58.8 °F 55.9 °F 29.63 in WNW 9.0 mph 16.0 mph 90 % 0.05 in 11 W/m2
07:39 58.5 °F 55.8 °F 29.62 in NW 10.0 mph 16.0 mph 91 % 0.06 in 9 W/m2
07:44 58.1 °F 55.8 °F 29.62 in WNW 9.0 mph 16.0 mph 92 % 0.08 in 9 W/m2
07:49 57.9 °F 55.6 °F 29.63 in WNW 8.0 mph 15.0 mph 92 % 0.09 in 12 W/m2
07:54 57.7 °F 55.4 °F 29.62 in WNW 8.0 mph 15.0 mph 92 % 0.12 in 19 W/m2
07:59 57.6 °F 55.6 °F 29.63 in WNW 7.0 mph 12.0 mph 93 % 0.14 in 30 W/m2
08:04 57.4 °F 55.4 °F 29.62 in WNW 8.0 mph 14.0 mph 93 % 0.16 in 37 W/m2
08:09 57.4 °F 55.4 °F 29.62 in WNW 8.0 mph 15.0 mph 93 % 0.17 in 47 W/m2
08:14 57.4 °F 55.7 °F 29.62 in WNW 8.0 mph 15.0 mph 94 % 0.17 in 58 W/m2
08:19 57.0 °F 55.3 °F 29.62 in WNW 9.0 mph 15.0 mph 94 % 0.17 in 93 W/m2
08:24 56.8 °F 55.1 °F 29.62 in WNW 9.0 mph 15.0 mph 94 % 0.17 in 107 W/m2
08:29 56.8 °F 55.1 °F 29.62 in WNW 8.0 mph 15.0 mph 94 % 0.15 in 111 W/m2
08:34 56.8 °F 55.1 °F 29.62 in WNW 8.0 mph 14.0 mph 94 % 0.13 in 148 W/m2
08:39 56.8 °F 55.1 °F 29.63 in WNW 7.0 mph 14.0 mph 94 % 0.12 in 200 W/m2
08:44 57.2 °F 55.8 °F 29.63 in West 6.0 mph 11.0 mph 95 % 0.09 in 207 W/m2
08:47 57.2 °F 55.8 °F 29.63 in West 5.0 mph 10.0 mph 95 % 0.09 in 190 W/m2
08:52 57.4 °F 56.0 °F 29.63 in WNW 5.0 mph 10.0 mph 95 % 0.07 in 179 W/m2
08:57 57.6 °F 56.1 °F 29.63 in WNW 6.0 mph 10.0 mph 95 % 0.05 in 146 W/m2
09:02 57.4 °F 55.7 °F 29.63 in WNW 6.0 mph 11.0 mph 94 % 0.02 in 134 W/m2
09:07 57.6 °F 55.8 °F 29.64 in WNW 6.0 mph 12.0 mph 94 % 0.02 in 113 W/m2
09:12 57.4 °F 55.7 °F 29.64 in WNW 6.0 mph 12.0 mph 94 % 0.01 in 83 W/m2
09:17 57.4 °F 55.7 °F 29.64 in WNW 6.0 mph 10.0 mph 94 % 0.01 in 79 W/m2
09:22 57.2 °F 55.5 °F 29.65 in WNW 6.0 mph 11.0 mph 94 % 0.00 in 72 W/m2
09:27 57.4 °F 55.7 °F 29.65 in WNW 7.0 mph 14.0 mph 94 % 0.00 in 58 W/m2
09:32 57.0 °F 55.3 °F 29.65 in WNW 7.0 mph 14.0 mph 94 % 0.00 in 98 W/m2
09:37 57.0 °F 55.3 °F 29.65 in WNW 8.0 mph 13.0 mph 94 % 0.00 in 118 W/m2
09:42 56.8 °F 55.1 °F 29.65 in WNW 8.0 mph 15.0 mph 94 % 0.00 in 127 W/m2
09:47 56.8 °F 55.1 °F 29.65 in WNW 7.0 mph 15.0 mph 94 % 0.00 in 125 W/m2
09:52 56.8 °F 55.1 °F 29.65 in WNW 7.0 mph 16.0 mph 94 % 0.01 in 107 W/m2
09:53 56.8 °F 55.1 °F 29.65 in WNW 7.0 mph 16.0 mph 94 % 0.01 in 111 W/m2
09:58 56.8 °F 54.8 °F 29.65 in WNW 8.0 mph 16.0 mph 93 % 0.01 in 114 W/m2
10:03 56.8 °F 55.1 °F 29.65 in WNW 8.0 mph 15.0 mph 94 % 0.01 in 120 W/m2
10:08 56.8 °F 54.8 °F 29.65 in WNW 9.0 mph 15.0 mph 93 % 0.01 in 141 W/m2
10:13 56.7 °F 54.7 °F 29.65 in WNW 9.0 mph 15.0 mph 93 % 0.01 in 137 W/m2
10:18 56.7 °F 54.7 °F 29.65 in WNW 9.0 mph 15.0 mph 93 % 0.01 in 153 W/m2
10:23 56.7 °F 54.7 °F 29.65 in WNW 9.0 mph 14.0 mph 93 % 0.01 in 155 W/m2
10:28 56.7 °F 54.4 °F 29.66 in WNW 9.0 mph 14.0 mph 92 % 0.01 in 171 W/m2
10:33 56.8 °F 54.8 °F 29.66 in WNW 7.0 mph 14.0 mph 93 % 0.01 in 174 W/m2
10:38 56.8 °F 54.5 °F 29.66 in WNW 7.0 mph 11.0 mph 92 % 0.01 in 183 W/m2
10:43 57.0 °F 54.7 °F 29.66 in WNW 7.0 mph 13.0 mph 92 % 0.01 in 162 W/m2
10:48 56.8 °F 54.5 °F 29.67 in West 9.0 mph 20.0 mph 92 % 0.01 in 142 W/m2
10:53 56.7 °F 54.4 °F 29.66 in West 9.0 mph 20.0 mph 92 % 0.00 in 186 W/m2
10:58 56.7 °F 54.1 °F 29.66 in WNW 7.0 mph 11.0 mph 91 % 0.00 in 206 W/m2
11:03 56.7 °F 54.1 °F 29.66 in WNW 7.0 mph 13.0 mph 91 % 0.00 in 200 W/m2
11:08 56.7 °F 54.1 °F 29.66 in WNW 8.0 mph 19.0 mph 91 % 0.00 in 214 W/m2
11:13 56.7 °F 54.1 °F 29.67 in WNW 9.0 mph 19.0 mph 91 % 0.00 in 220 W/m2
11:18 56.7 °F 53.8 °F 29.67 in West 9.0 mph 14.0 mph 90 % 0.00 in 141 W/m2
11:23 56.5 °F 53.6 °F 29.67 in West 9.0 mph 14.0 mph 90 % 0.01 in 163 W/m2
11:28 56.5 °F 53.6 °F 29.67 in WNW 9.0 mph 15.0 mph 90 % 0.01 in 183 W/m2
11:33 56.5 °F 53.6 °F 29.67 in WNW 9.0 mph 15.0 mph 90 % 0.01 in 232 W/m2
11:38 56.5 °F 53.6 °F 29.67 in WNW 9.0 mph 16.0 mph 90 % 0.01 in 251 W/m2
11:43 56.7 °F 53.8 °F 29.67 in WNW 10.0 mph 16.0 mph 90 % 0.01 in 200 W/m2
11:48 56.7 °F 53.5 °F 29.68 in WNW 10.0 mph 18.0 mph 89 % 0.01 in 149 W/m2
11:53 56.5 °F 53.3 °F 29.67 in WNW 9.0 mph 18.0 mph 89 % 0.02 in 100 W/m2
11:58 56.5 °F 53.3 °F 29.67 in WNW 9.0 mph 16.0 mph 89 % 0.02 in 113 W/m2
12:03 56.1 °F 53.2 °F 29.67 in WNW 9.0 mph 16.0 mph 90 % 0.02 in 162 W/m2
12:06 56.1 °F 53.2 °F 29.67 in WNW 9.0 mph 16.0 mph 90 % 0.02 in 214 W/m2
12:11 56.1 °F 53.2 °F 29.67 in WNW 9.0 mph 16.0 mph 90 % 0.02 in 258 W/m2
12:15 56.1 °F 53.2 °F 29.67 in WNW 9.0 mph 16.0 mph 90 % 0.02 in 151 W/m2
12:20 56.3 °F 53.4 °F 29.67 in WNW 9.0 mph 15.0 mph 90 % 0.02 in 218 W/m2
12:25 56.1 °F 53.2 °F 29.68 in WNW 9.0 mph 15.0 mph 90 % 0.02 in 232 W/m2
12:31 56.5 °F 53.6 °F 29.68 in WNW 9.0 mph 15.0 mph 90 % 0.02 in 236 W/m2
12:36 56.5 °F 53.6 °F 29.68 in WNW 8.0 mph 15.0 mph 90 % 0.02 in 248 W/m2
12:41 56.5 °F 53.6 °F 29.67 in WNW 8.0 mph 15.0 mph 90 % 0.02 in 216 W/m2
12:46 56.7 °F 53.5 °F 29.67 in WNW 8.0 mph 15.0 mph 89 % 0.02 in 272 W/m2
12:51 56.8 °F 53.9 °F 29.68 in WNW 7.0 mph 14.0 mph 90 % 0.01 in 325 W/m2
12:56 57.2 °F 54.3 °F 29.68 in WNW 6.0 mph 11.0 mph 90 % 0.01 in 420 W/m2
13:01 57.6 °F 54.3 °F 29.68 in NW 7.0 mph 12.0 mph 89 % 0.01 in 313 W/m2
13:06 57.9 °F 54.4 °F 29.68 in WNW 7.0 mph 14.0 mph 88 % 0.00 in 418 W/m2
13:11 58.3 °F 54.4 °F 29.68 in WNW 8.0 mph 16.0 mph 87 % 0.00 in 513 W/m2
13:16 58.6 °F 54.5 °F 29.68 in WNW 8.0 mph 16.0 mph 86 % 0.00 in 408 W/m2
13:21 59.2 °F 54.7 °F 29.68 in WNW 7.0 mph 13.0 mph 85 % 0.00 in 355 W/m2
13:26 59.4 °F 54.8 °F 29.69 in West 7.0 mph 20.0 mph 85 % 0.00 in 450 W/m2
13:31 59.5 °F 53.4 °F 29.69 in West 10.0 mph 21.0 mph 80 % 0.00 in 450 W/m2
13:36 59.7 °F 53.2 °F 29.69 in WNW 11.0 mph 21.0 mph 79 % 0.00 in 362 W/m2
13:41 59.7 °F 52.5 °F 29.69 in WNW 12.0 mph 20.0 mph 77 % 0.00 in 318 W/m2
13:46 59.7 °F 52.1 °F 29.69 in West 12.0 mph 25.0 mph 76 % 0.00 in 330 W/m2
13:51 59.7 °F 52.1 °F 29.69 in West 10.0 mph 25.0 mph 76 % 0.00 in 388 W/m2
13:56 59.7 °F 52.5 °F 29.69 in WNW 9.0 mph 18.0 mph 77 % 0.00 in 394 W/m2
14:01 60.1 °F 52.1 °F 29.69 in WNW 10.0 mph 16.0 mph 75 % 0.00 in 480 W/m2
14:06 60.4 °F 52.8 °F 29.69 in WNW 9.0 mph 16.0 mph 76 % 0.00 in 650 W/m2
14:11 60.8 °F 52.5 °F 29.69 in WNW 10.0 mph 19.0 mph 74 % 0.00 in 329 W/m2
14:16 60.6 °F 51.9 °F 29.69 in West 10.0 mph 19.0 mph 73 % 0.00 in 195 W/m2
14:21 60.4 °F 52.1 °F 29.69 in WNW 9.0 mph 15.0 mph 74 % 0.00 in 327 W/m2
14:26 60.4 °F 52.5 °F 29.69 in WNW 9.0 mph 15.0 mph 75 % 0.00 in 369 W/m2
14:31 60.6 °F 52.3 °F 29.70 in WNW 8.0 mph 15.0 mph 74 % 0.00 in 204 W/m2
14:37 60.6 °F 52.3 °F 29.70 in WNW 7.0 mph 14.0 mph 74 % 0.00 in 176 W/m2
14:42 60.3 °F 50.8 °F 29.70 in West 8.0 mph 16.0 mph 71 % 0.00 in 309 W/m2
14:47 60.3 °F 50.4 °F 29.70 in West 11.0 mph 20.0 mph 70 % 0.00 in 320 W/m2
14:52 60.1 °F 49.9 °F 29.71 in West 12.0 mph 23.0 mph 69 % 0.00 in 281 W/m2
14:57 60.1 °F 50.3 °F 29.71 in WNW 12.0 mph 23.0 mph 70 % 0.00 in 264 W/m2
15:02 60.1 °F 50.3 °F 29.71 in West 11.0 mph 20.0 mph 70 % 0.00 in 373 W/m2
15:07 59.9 °F 49.3 °F 29.71 in West 13.0 mph 23.0 mph 68 % 0.00 in 515 W/m2
15:12 60.3 °F 49.7 °F 29.71 in West 14.0 mph 24.0 mph 68 % 0.00 in 515 W/m2
15:17 60.6 °F 49.6 °F 29.72 in WNW 13.0 mph 24.0 mph 67 % 0.00 in 536 W/m2
15:22 61.0 °F 49.9 °F 29.71 in WNW 12.0 mph 21.0 mph 67 % 0.00 in 417 W/m2
15:27 61.2 °F 49.7 °F 29.72 in West 11.0 mph 21.0 mph 66 % 0.00 in 345 W/m2
15:32 61.2 °F 49.3 °F 29.72 in West 10.0 mph 19.0 mph 65 % 0.00 in 378 W/m2
15:37 61.0 °F 47.9 °F 29.72 in West 11.0 mph 21.0 mph 62 % 0.00 in 717 W/m2
15:42 61.2 °F 47.2 °F 29.72 in West 12.0 mph 21.0 mph 60 % 0.00 in 348 W/m2
15:47 61.2 °F 47.6 °F 29.72 in West 12.0 mph 21.0 mph 61 % 0.00 in 427 W/m2
15:52 61.5 °F 47.9 °F 29.72 in West 12.0 mph 21.0 mph 61 % 0.00 in 831 W/m2
15:57 61.9 °F 48.3 °F 29.72 in West 11.0 mph 19.0 mph 61 % 0.00 in 619 W/m2
16:02 62.1 °F 48.4 °F 29.72 in West 10.0 mph 18.0 mph 61 % 0.00 in 557 W/m2
16:07 62.1 °F 48.4 °F 29.72 in West 10.0 mph 15.0 mph 61 % 0.00 in 606 W/m2
16:08 62.2 °F 48.6 °F 29.72 in WNW 10.0 mph 15.0 mph 61 % 0.00 in 306 W/m2
16:13 62.4 °F 48.8 °F 29.72 in West 10.0 mph 15.0 mph 61 % 0.00 in 863 W/m2
16:18 63.1 °F 49.5 °F 29.72 in West 9.0 mph 14.0 mph 61 % 0.00 in 738 W/m2
16:23 63.7 °F 49.1 °F 29.72 in West 9.0 mph 18.0 mph 59 % 0.00 in 276 W/m2
16:28 63.3 °F 47.8 °F 29.72 in West 12.0 mph 21.0 mph 57 % 0.00 in 334 W/m2
16:30 63.3 °F 47.8 °F 29.72 in West 12.0 mph 21.0 mph 57 % 0.00 in 657 W/m2
16:35 63.7 °F 48.2 °F 29.72 in West 12.0 mph 22.0 mph 57 % 0.00 in 752 W/m2
16:40 63.9 °F 48.3 °F 29.72 in West 12.0 mph 22.0 mph 57 % 0.00 in 682 W/m2
16:45 64.6 °F 49.0 °F 29.72 in WNW 10.0 mph 22.0 mph 57 % 0.00 in 631 W/m2
16:50 64.9 °F 49.8 °F 29.72 in WNW 7.0 mph 14.0 mph 58 % 0.00 in 636 W/m2
16:55 65.3 °F 49.2 °F 29.72 in West 8.0 mph 14.0 mph 56 % 0.00 in 643 W/m2
17:00 64.9 °F 48.9 °F 29.72 in West 9.0 mph 15.0 mph 56 % 0.00 in 615 W/m2
17:05 64.9 °F 48.9 °F 29.72 in WSW 9.0 mph 15.0 mph 56 % 0.00 in 589 W/m2
17:10 64.9 °F 48.4 °F 29.72 in West 8.0 mph 14.0 mph 55 % 0.00 in 606 W/m2
17:15 65.1 °F 48.1 °F 29.72 in West 8.0 mph 14.0 mph 54 % 0.00 in 615 W/m2
17:20 65.1 °F 49.0 °F 29.72 in West 9.0 mph 19.0 mph 56 % 0.00 in 561 W/m2
17:25 64.8 °F 48.7 °F 29.72 in WSW 9.0 mph 19.0 mph 56 % 0.00 in 167 W/m2
17:30 64.6 °F 48.0 °F 29.72 in WSW 9.0 mph 18.0 mph 55 % 0.00 in 132 W/m2
17:35 64.0 °F 48.0 °F 29.72 in WSW 9.0 mph 18.0 mph 56 % 0.00 in 156 W/m2
17:40 63.7 °F 48.2 °F 29.72 in West 8.0 mph 13.0 mph 57 % 0.00 in 142 W/m2
17:45 63.3 °F 48.3 °F 29.72 in WSW 8.0 mph 13.0 mph 58 % 0.00 in 420 W/m2
17:50 63.5 °F 49.4 °F 29.72 in WSW 6.0 mph 12.0 mph 60 % 0.00 in 517 W/m2
17:55 63.5 °F 48.5 °F 29.72 in SW 6.0 mph 10.0 mph 58 % 0.00 in 121 W/m2
18:00 63.1 °F 48.6 °F 29.72 in SW 6.0 mph 12.0 mph 59 % 0.00 in 139 W/m2
18:05 63.1 °F 48.6 °F 29.72 in WSW 7.0 mph 12.0 mph 59 % 0.00 in 193 W/m2
18:10 63.3 °F 48.7 °F 29.72 in West 7.0 mph 11.0 mph 59 % 0.00 in 130 W/m2
18:15 63.3 °F 48.7 °F 29.72 in West 6.0 mph 11.0 mph 59 % 0.00 in 120 W/m2
18:20 63.3 °F 48.3 °F 29.72 in WSW 6.0 mph 11.0 mph 58 % 0.00 in 116 W/m2
18:25 63.5 °F 48.0 °F 29.72 in WSW 7.0 mph 13.0 mph 57 % 0.00 in 397 W/m2
18:31 63.7 °F 48.2 °F 29.72 in WSW 8.0 mph 13.0 mph 57 % 0.00 in 123 W/m2
18:36 63.9 °F 48.3 °F 29.72 in West 7.0 mph 12.0 mph 57 % 0.00 in 371 W/m2
18:41 63.9 °F 48.3 °F 29.72 in WSW 7.0 mph 12.0 mph 57 % 0.00 in 98 W/m2
18:46 63.5 °F 48.5 °F 29.72 in WSW 7.0 mph 11.0 mph 58 % 0.00 in 69 W/m2
18:51 63.3 °F 47.8 °F 29.72 in West 7.0 mph 14.0 mph 57 % 0.00 in 316 W/m2
18:56 63.5 °F 48.0 °F 29.72 in West 9.0 mph 14.0 mph 57 % 0.00 in 278 W/m2
19:01 64.0 °F 48.0 °F 29.72 in West 9.0 mph 15.0 mph 56 % 0.00 in 257 W/m2
19:06 64.2 °F 47.7 °F 29.72 in West 8.0 mph 15.0 mph 55 % 0.00 in 241 W/m2
19:11 64.0 °F 47.1 °F 29.72 in West 8.0 mph 12.0 mph 54 % 0.00 in 40 W/m2
19:16 63.7 °F 47.7 °F 29.72 in West 7.0 mph 11.0 mph 56 % 0.00 in 54 W/m2
19:21 63.1 °F 47.2 °F 29.72 in West 7.0 mph 12.0 mph 56 % 0.00 in 63 W/m2
19:26 63.1 °F 46.7 °F 29.73 in WSW 7.0 mph 12.0 mph 55 % 0.00 in 40 W/m2
19:31 62.8 °F 46.4 °F 29.73 in WSW 8.0 mph 13.0 mph 55 % 0.00 in 149 W/m2
19:36 62.8 °F 46.4 °F 29.73 in WSW 7.0 mph 13.0 mph 55 % 0.00 in 165 W/m2
19:41 63.0 °F 46.5 °F 29.73 in WSW 7.0 mph 11.0 mph 55 % 0.00 in 163 W/m2
19:46 63.0 °F 46.5 °F 29.73 in WSW 7.0 mph 11.0 mph 55 % 0.00 in 144 W/m2
19:51 63.0 °F 46.0 °F 29.73 in WSW 7.0 mph 13.0 mph 54 % 0.00 in 132 W/m2
19:56 63.0 °F 45.6 °F 29.73 in WSW 8.0 mph 13.0 mph 53 % 0.00 in 125 W/m2
20:01 63.0 °F 45.6 °F 29.73 in WSW 7.0 mph 12.0 mph 53 % 0.00 in 113 W/m2
20:06 63.0 °F 46.0 °F 29.73 in WSW 6.0 mph 11.0 mph 54 % 0.00 in 49 W/m2
20:11 62.8 °F 45.9 °F 29.73 in WSW 5.0 mph 9.0 mph 54 % 0.00 in 26 W/m2
20:13 62.6 °F 46.2 °F 29.73 in WSW 5.0 mph 9.0 mph 55 % 0.00 in 26 W/m2
20:18 62.4 °F 46.5 °F 29.73 in WSW 5.0 mph 7.0 mph 56 % 0.00 in 25 W/m2
20:23 62.2 °F 46.3 °F 29.73 in WSW 4.0 mph 7.0 mph 56 % 0.00 in 25 W/m2
20:28 61.9 °F 46.5 °F 29.73 in WSW 4.0 mph 7.0 mph 57 % 0.00 in 23 W/m2
20:33 61.9 °F 46.9 °F 29.73 in WSW 2.0 mph 5.0 mph 58 % 0.00 in 19 W/m2
20:38 61.5 °F 47.1 °F 29.74 in WSW 4.0 mph 7.0 mph 59 % 0.00 in 18 W/m2
20:43 61.2 °F 47.2 °F 29.74 in SW 4.0 mph 7.0 mph 60 % 0.00 in 18 W/m2
20:48 61.0 °F 47.4 °F 29.74 in SW 2.0 mph 7.0 mph 61 % 0.00 in 16 W/m2
20:53 60.6 °F 47.5 °F 29.74 in WSW 2.0 mph 5.0 mph 62 % 0.00 in 14 W/m2
20:58 60.3 °F 47.6 °F 29.74 in SW 3.0 mph 6.0 mph 63 % 0.00 in 11 W/m2
21:03 59.9 °F 47.3 °F 29.74 in SW 4.0 mph 7.0 mph 63 % 0.00 in 11 W/m2
21:08 59.5 °F 46.9 °F 29.75 in SW 5.0 mph 8.0 mph 63 % 0.00 in 9 W/m2
21:10 59.4 °F 46.8 °F 29.75 in SW 5.0 mph 8.0 mph 63 % 0.00 in 7 W/m2
21:15 59.2 °F 47.0 °F 29.75 in WSW 4.0 mph 8.0 mph 64 % 0.00 in 7 W/m2
21:20 59.0 °F 46.8 °F 29.75 in WSW 3.0 mph 7.0 mph 64 % 0.00 in 5 W/m2
21:25 58.6 °F 46.9 °F 29.75 in WSW 2.0 mph 6.0 mph 65 % 0.00 in 0 W/m2
21:30 58.5 °F 47.1 °F 29.75 in WSW 1.0 mph 4.0 mph 66 % 0.00 in 0 W/m2
21:35 58.3 °F 47.0 °F 29.76 in SW 3.0 mph 16.0 mph 66 % 0.00 in 0 W/m2
21:40 58.1 °F 47.2 °F 29.76 in SW 6.0 mph 16.0 mph 67 % 0.00 in 0 W/m2
21:45 57.9 °F 47.4 °F 29.76 in SW 7.0 mph 13.0 mph 68 % 0.00 in 0 W/m2
21:50 57.7 °F 47.6 °F 29.75 in WSW 6.0 mph 13.0 mph 69 % 0.00 in 0 W/m2
21:55 57.7 °F 48.0 °F 29.75 in WSW 5.0 mph 11.0 mph 70 % 0.00 in 0 W/m2
22:00 57.7 °F 48.0 °F 29.76 in WSW 5.0 mph 11.0 mph 70 % 0.00 in 0 W/m2
22:05 57.7 °F 48.4 °F 29.75 in WSW 5.0 mph 10.0 mph 71 % 0.00 in 0 W/m2
22:10 57.6 °F 48.6 °F 29.75 in WSW 5.0 mph 10.0 mph 72 % 0.00 in 0 W/m2
22:15 57.6 °F 48.6 °F 29.75 in WSW 5.0 mph 9.0 mph 72 % 0.00 in 0 W/m2
22:20 57.6 °F 49.0 °F 29.75 in WSW 5.0 mph 7.0 mph 73 % 0.00 in 0 W/m2
22:25 57.6 °F 49.0 °F 29.75 in SW 4.0 mph 8.0 mph 73 % 0.00 in 0 W/m2
22:30 57.4 °F 49.2 °F 29.75 in SW 4.0 mph 8.0 mph 74 % 0.00 in 0 W/m2
22:35 57.4 °F 49.2 °F 29.75 in WSW 4.0 mph 7.0 mph 74 % 0.00 in 0 W/m2
22:40 57.0 °F 48.8 °F 29.75 in SW 3.0 mph 6.0 mph 74 % 0.00 in 0 W/m2
22:45 56.8 °F 48.6 °F 29.75 in WSW 4.0 mph 6.0 mph 74 % 0.00 in 0 W/m2
22:50 56.7 °F 48.5 °F 29.75 in WSW 3.0 mph 6.0 mph 74 % 0.00 in 0 W/m2
22:55 56.5 °F 48.6 °F 29.75 in SW 3.0 mph 7.0 mph 75 % 0.00 in 0 W/m2
23:00 56.1 °F 48.3 °F 29.75 in SW 4.0 mph 7.0 mph 75 % 0.00 in 0 W/m2
23:05 55.9 °F 48.5 °F 29.75 in SSW 3.0 mph 6.0 mph 76 % 0.00 in 0 W/m2
23:10 55.9 °F 48.5 °F 29.75 in SSW 2.0 mph 5.0 mph 76 % 0.00 in 0 W/m2
23:15 55.8 °F 48.3 °F 29.75 in SW 1.0 mph 5.0 mph 76 % 0.00 in 0 W/m2
23:20 55.6 °F 48.1 °F 29.75 in SW 2.0 mph 6.0 mph 76 % 0.00 in 0 W/m2
23:25 55.4 °F 48.3 °F 29.76 in SW 4.0 mph 7.0 mph 77 % 0.00 in 0 W/m2
23:30 55.2 °F 48.1 °F 29.75 in SW 4.0 mph 8.0 mph 77 % 0.00 in 0 W/m2
23:35 55.2 °F 48.5 °F 29.75 in SSW 5.0 mph 9.0 mph 78 % 0.00 in 0 W/m2
23:40 55.2 °F 48.1 °F 29.75 in SSW 5.0 mph 10.0 mph 77 % 0.00 in 0 W/m2
23:45 55.2 °F 48.1 °F 29.75 in SSW 5.0 mph 10.0 mph 77 % 0.00 in 0 W/m2
23:50 55.4 °F 48.3 °F 29.75 in SSW 4.0 mph 8.0 mph 77 % 0.00 in 0 W/m2
23:55 55.4 °F 48.3 °F 29.75 in SSW 4.0 mph 7.0 mph 77 % 0.00 in 0 W/m2
Delerius-Weather
Compliments of Weather Underground - 2.25 mb

Data updates at regular intervals.